Time;durP1;ratioP1;P1;durP2;ratioP2;P2;SDS_P1;SDS_P2;PMS_P1;PMS_P2;Temp;Humidity;BMP_temperature;BMP_pressure;BME280_temperature;BME280_humidity;BME280_pressure;Samples;Min_cycle;Max_cycle;Signal;HPM_P1;HPM_P2
2023/03/12 00:00:47;;;;;;;5.90;2.80;;;;;;;9.49;94.64;97112.57;78205;1298;3026420;-60
2023/03/12 00:03:16;;;;;;;7.30;3.60;;;;;;;10.04;93.28;97097.48;79299;1298;3011667;-62
2023/03/12 00:05:43;;;;;;;5.70;3.60;;;;;;;10.40;91.01;97095.80;79437;1296;3011692;-64
2023/03/12 00:08:15;;;;;;;9.40;4.80;;;;;;;10.40;90.06;97086.11;78092;1300;3058637;-62
2023/03/12 00:10:42;;;;;;;9.80;4.60;;;;;;;10.20;90.71;97080.55;79318;1298;3013211;-61
2023/03/12 00:13:10;;;;;;;9.60;5.60;;;;;;;9.89;92.55;97082.08;79304;1296;3011840;-62
2023/03/12 00:15:38;;;;;;;7.00;4.10;;;;;;;9.84;93.30;97076.48;78174;1299;3052982;-61
2023/03/12 00:18:05;;;;;;;8.00;4.80;;;;;;;10.27;92.32;97067.94;79311;1297;3013172;-61
2023/03/12 00:20:32;;;;;;;11.90;6.40;;;;;;;10.32;91.44;97076.58;79359;1296;3011888;-61
2023/03/12 00:23:00;;;;;;;13.30;7.80;;;;;;;10.03;92.50;97073.05;78037;1296;3056203;-60
2023/03/12 00:25:26;;;;;;;14.60;8.30;;;;;;;10.09;92.74;97064.61;79299;1295;3013268;-60
2023/03/12 00:27:54;;;;;;;14.30;7.90;;;;;;;9.92;93.25;97061.65;79265;1297;3012133;-61
2023/03/12 00:30:22;;;;;;;11.90;5.90;;;;;;;9.71;94.44;97059.13;78052;1301;3052507;-61
2023/03/12 00:33:04;;;;;;;10.90;6.90;;;;;;;10.07;94.00;97051.21;78075;1300;3052890;-62
2023/03/12 00:35:31;;;;;;;11.10;6.80;;;;;;;10.18;92.82;97052.73;79299;1298;3013005;-61
2023/03/12 00:37:58;;;;;;;13.80;8.00;;;;;;;10.32;92.02;97044.70;79367;1298;3011548;-62
2023/03/12 00:40:26;;;;;;;11.50;7.70;;;;;;;9.93;93.22;97050.90;78092;1301;3027683;-62
2023/03/12 00:42:52;;;;;;;14.70;9.40;;;;;;;9.83;93.94;97039.29;79251;1295;3021327;-62
2023/03/12 00:45:19;;;;;;;10.50;5.00;;;;;;;9.68;95.49;97039.30;79454;1295;3013019;-63
2023/03/12 00:47:47;;;;;;;9.30;5.50;;;;;;;10.10;94.00;97035.30;78274;1298;3026281;-61
2023/03/12 00:50:13;;;;;;;13.20;7.00;;;;;;;10.36;92.24;97031.24;79521;1298;3018967;-63
2023/03/12 00:52:40;;;;;;;12.10;7.70;;;;;;;10.38;91.55;97026.48;79345;1298;3011570;-61
2023/03/12 00:55:08;;;;;;;14.70;7.40;;;;;;;10.25;91.92;97024.91;78133;1301;3029423;-62
2023/03/12 00:57:35;;;;;;;12.40;7.90;;;;;;;10.12;92.09;97017.52;79443;1296;3013250;-64
2023/03/12 01:00:03;;;;;;;15.40;8.10;;;;;;;9.87;93.28;97018.45;79428;1295;3011925;-62
2023/03/12 01:02:32;;;;;;;8.80;5.40;;;;;;;9.71;94.86;97019.77;78266;1296;3052112;-59
2023/03/12 01:05:00;;;;;;;11.50;5.30;;;;;;;10.10;94.21;97012.21;79501;1295;3012846;-61
2023/03/12 01:07:28;;;;;;;12.30;6.20;;;;;;;10.72;90.68;97014.55;79487;1298;3011616;-62
2023/03/12 01:09:56;;;;;;;12.60;7.90;;;;;;;10.68;89.44;97012.64;78230;1298;3050943;-60
2023/03/12 01:12:22;;;;;;;15.90;8.70;;;;;;;10.36;90.19;96998.96;79364;1295;3013114;-60
2023/03/12 01:14:49;;;;;;;16.60;9.50;;;;;;;10.16;91.78;96998.13;79376;1296;3012316;-61
2023/03/12 01:17:17;;;;;;;15.30;9.50;;;;;;;9.94;92.44;96994.00;78192;1300;3026515;-62
2023/03/12 01:19:44;;;;;;;13.80;6.70;;;;;;;9.66;94.34;96999.95;79480;1298;3021188;-60
2023/03/12 01:22:10;;;;;;;15.70;7.00;;;;;;;10.06;93.72;96992.70;79612;1295;3013333;-61
2023/03/12 01:24:38;;;;;;;16.70;7.80;;;;;;;10.30;91.42;96993.08;78224;1298;3026634;-63
2023/03/12 01:27:05;;;;;;;14.40;8.90;;;;;;;10.26;91.27;96990.41;79519;1295;3019058;-60
2023/03/12 01:29:32;;;;;;;15.20;8.90;;;;;;;10.04;92.28;96991.83;79302;1300;3011549;-64
2023/03/12 01:32:00;;;;;;;16.00;9.30;;;;;;;9.81;93.10;96990.86;78236;1297;3026869;-63
2023/03/12 01:34:27;;;;;;;13.50;5.70;;;;;;;9.58;94.64;96999.41;79450;1298;3019058;-60
2023/03/12 01:36:54;;;;;;;14.60;7.10;;;;;;;10.03;93.39;96996.41;79467;1294;3013051;-60
2023/03/12 01:39:22;;;;;;;16.50;8.00;;;;;;;10.29;91.17;96999.57;78236;1295;3026108;-63
2023/03/12 01:41:49;;;;;;;17.70;8.10;;;;;;;10.31;90.39;96990.36;79441;1298;3011657;-61
2023/03/12 01:44:15;;;;;;;12.80;7.90;;;;;;;10.26;90.29;96996.82;79343;1296;3013785;-65
2023/03/12 01:46:44;;;;;;;14.50;8.10;;;;;;;9.93;91.31;96993.98;78258;1298;3052468;-61
2023/03/12 01:49:28;;;;;;;18.20;8.90;;;;;;;9.77;92.08;96995.77;78205;1298;3067338;-61
2023/03/12 01:51:57;;;;;;;11.40;6.30;;;;;;;9.71;92.53;96989.54;77996;1296;3052314;-62
2023/03/12 01:54:29;;;;;;;12.40;6.20;;;;;;;10.01;91.98;96988.23;79442;1294;3011896;-62
2023/03/12 01:56:57;;;;;;;12.00;6.50;;;;;;;10.47;89.00;96980.06;78263;1298;3053629;-63
2023/03/12 01:59:29;;;;;;;12.30;6.70;;;;;;;10.56;87.75;96978.15;79287;1303;3013060;-61
2023/03/12 02:01:57;;;;;;;13.00;7.40;;;;;;;10.05;89.76;96975.14;78081;1301;3054886;-61
2023/03/12 02:04:25;;;;;;;11.10;5.50;;;;;;;10.04;90.66;96968.58;79392;1295;3013132;-63
2023/03/12 02:07:00;;;;;;;11.40;6.00;;;;;;;10.01;90.38;96967.41;79518;1294;3011691;-62
2023/03/12 02:09:40;;;;;;;10.60;3.80;;;;;;;9.85;91.48;96972.87;78092;1295;3050439;-62
2023/03/12 02:12:10;;;;;;;7.30;5.00;;;;;;;10.24;90.75;96968.19;78768;1298;3011916;-62
2023/03/12 02:14:37;;;;;;;8.70;4.30;;;;;;;10.62;88.15;96958.80;79364;1295;3012906;-61
2023/03/12 02:17:04;;;;;;;11.70;5.30;;;;;;;10.48;87.86;96955.56;79296;1295;3011935;-61
2023/03/12 02:19:50;;;;;;;11.50;5.30;;;;;;;10.23;88.77;96955.02;78150;1301;3053386;-65
2023/03/12 02:22:19;;;;;;;12.30;5.30;;;;;;;10.08;89.10;96945.92;78106;1300;3068770;-63
2023/03/12 02:25:18;;;;;;;12.60;5.80;;;;;;;9.92;89.65;96948.15;79236;1295;3011748;-60
2023/03/12 02:27:46;;;;;;;7.80;4.10;;;;;;;9.71;91.36;96945.52;78033;1301;3057538;-60
2023/03/12 02:30:17;;;;;;;9.80;3.60;;;;;;;9.96;90.85;96951.10;79256;1295;3011346;-60
2023/03/12 02:32:49;;;;;;;7.80;4.10;;;;;;;10.23;89.64;96948.70;78041;1300;3053499;-61
2023/03/12 02:35:16;;;;;;;9.60;4.40;;;;;;;10.14;89.02;96945.70;79232;1301;3013865;-62
2023/03/12 02:37:50;;;;;;;10.90;5.30;;;;;;;10.00;89.30;96945.91;79329;1299;3012028;-61
2023/03/12 02:40:43;;;;;;;9.60;5.20;;;;;;;9.78;90.01;96951.83;78195;1295;3069307;-64
2023/03/12 02:43:12;;;;;;;6.10;2.60;;;;;;;9.49;91.84;96954.77;78150;1298;3052030;-62
2023/03/12 02:45:39;;;;;;;8.60;3.50;;;;;;;9.88;90.88;96954.73;79284;1302;3013014;-63
2023/03/12 02:48:07;;;;;;;6.90;3.90;;;;;;;10.17;89.08;96955.02;79227;1300;3011623;-62
2023/03/12 02:50:35;;;;;;;10.60;4.90;;;;;;;10.11;89.09;96943.88;78115;1300;3049477;-62
2023/03/12 02:53:03;;;;;;;7.40;4.50;;;;;;;9.89;89.48;96950.75;79378;1301;3013492;-64
2023/03/12 02:55:36;;;;;;;7.00;4.70;;;;;;;9.72;90.64;96950.32;78057;1299;3070209;-61
2023/03/12 02:58:04;;;;;;;13.40;5.20;;;;;;;9.47;91.40;96948.67;82077;1295;3012718;-61
2023/03/12 03:00:31;;;;;;;6.30;2.70;;;;;;;9.33;93.15;96953.40;82006;1295;3011247;-61
2023/03/12 03:03:00;;;;;;;6.70;3.20;;;;;;;9.77;92.45;96945.88;80815;1295;3053143;-61
2023/03/12 03:05:26;;;;;;;8.30;4.40;;;;;;;10.22;89.74;96950.66;82031;1298;3012486;-62
2023/03/12 03:07:59;;;;;;;6.50;4.60;;;;;;;10.16;88.83;96949.33;80794;1295;3051933;-61
2023/03/12 03:10:27;;;;;;;11.90;4.50;;;;;;;9.87;89.73;96943.41;81989;1298;3011415;-62
2023/03/12 03:12:53;;;;;;;11.30;4.40;;;;;;;9.67;90.87;96945.20;82066;1295;3011403;-61
2023/03/12 03:15:23;;;;;;;9.40;5.10;;;;;;;9.47;91.79;96955.22;80773;1295;3049832;-61
2023/03/12 03:17:51;;;;;;;5.60;2.80;;;;;;;9.31;92.89;96958.60;81965;1300;3011330;-62
2023/03/12 03:20:18;;;;;;;5.70;2.70;;;;;;;9.70;92.13;96952.44;82071;1295;3011021;-63
2023/03/12 03:25:56;;;;;;;4.70;2.90;;;;;;;9.92;89.80;96949.46;79992;1302;3015160;-62
2023/03/12 03:28:23;;;;;;;3.70;2.70;;;;;;;9.69;90.01;96953.57;78986;1302;3012958;-63
2023/03/12 03:30:59;;;;;;;5.80;3.40;;;;;;;9.35;91.79;96952.27;78973;1304;3011197;-63
2023/03/12 03:33:29;;;;;;;4.30;2.90;;;;;;;9.22;92.52;96955.98;77765;1302;3053917;-62
2023/03/12 03:35:58;;;;;;;2.10;1.40;;;;;;;9.11;93.69;96953.54;79253;1303;3013936;-63
2023/03/12 03:38:31;;;;;;;3.20;1.60;;;;;;;9.51;92.83;96950.21;77331;1304;3057797;-66
2023/03/12 03:41:04;;;;;;;3.50;1.40;;;;;;;9.71;90.65;96944.80;77976;1299;3048633;-63
2023/03/12 03:43:33;;;;;;;3.60;1.70;;;;;;;9.66;90.57;96942.70;79355;1301;3013186;-61
2023/03/12 03:46:01;;;;;;;2.60;1.50;;;;;;;9.45;90.87;96947.63;79310;1302;3011973;-60
2023/03/12 03:48:30;;;;;;;2.30;1.70;;;;;;;9.32;91.45;96947.14;78048;1301;3052865;-62
2023/03/12 03:51:01;;;;;;;3.80;2.00;;;;;;;9.09;92.89;96948.25;79336;1300;3013112;-62
2023/03/12 03:53:33;;;;;;;2.60;1.10;;;;;;;9.07;93.32;96947.27;78073;1301;3059133;-61
2023/03/12 03:56:06;;;;;;;1.70;1.20;;;;;;;9.35;92.87;96950.71;79363;1296;3013102;-61
2023/03/12 03:58:36;;;;;;;3.70;1.70;;;;;;;9.69;90.95;96946.56;77988;1295;3050596;-60
2023/03/12 04:01:04;;;;;;;3.80;1.60;;;;;;;9.68;90.25;96949.33;79299;1298;3014102;-61
2023/03/12 04:03:34;;;;;;;3.40;1.30;;;;;;;9.31;91.75;96953.92;78701;1301;3013710;-62
2023/03/12 04:06:10;;;;;;;2.70;1.60;;;;;;;9.12;92.94;96955.52;78072;1301;3069765;-62
2023/03/12 04:08:38;;;;;;;4.60;2.10;;;;;;;8.88;94.33;96963.69;79412;1295;3013620;-63
2023/03/12 04:11:11;;;;;;;2.70;1.30;;;;;;;8.80;96.11;96967.38;78128;1300;3056321;-63
2023/03/12 04:13:38;;;;;;;3.10;1.00;;;;;;;9.18;95.29;96957.57;79449;1300;3011853;-61
2023/03/12 04:16:12;;;;;;;2.50;1.30;;;;;;;9.65;92.36;96966.25;78206;1295;3053298;-60
2023/03/12 04:18:41;;;;;;;2.50;1.40;;;;;;;9.43;92.40;96966.21;79440;1296;3013450;-62
2023/03/12 04:21:11;;;;;;;3.90;1.70;;;;;;;9.28;93.49;96969.55;78840;1298;3011959;-60
2023/03/12 04:23:38;;;;;;;4.30;1.70;;;;;;;8.96;95.05;96980.55;79459;1300;3013175;-61
2023/03/12 04:26:06;;;;;;;3.10;0.90;;;;;;;8.84;96.64;96992.15;79340;1296;3011932;-61
2023/03/12 04:28:37;;;;;;;3.00;1.00;;;;;;;9.11;96.37;96983.55;78237;1300;3057459;-61
2023/03/12 04:31:05;;;;;;;2.50;1.20;;;;;;;9.55;94.20;96985.70;79408;1301;3018947;-62
2023/03/12 04:33:38;;;;;;;1.90;1.20;;;;;;;9.50;93.60;96989.33;78146;1301;3050411;-61
2023/03/12 04:36:08;;;;;;;3.10;1.50;;;;;;;9.17;94.69;96994.20;79481;1296;3012962;-61
2023/03/12 04:38:38;;;;;;;2.70;1.50;;;;;;;8.97;96.86;97008.61;78072;1301;3052140;-61
2023/03/12 04:41:07;;;;;;;1.50;0.90;;;;;;;9.01;97.48;97011.23;79299;1296;3014830;-65
2023/03/12 04:43:36;;;;;;;2.10;1.20;;;;;;;9.47;95.87;97007.40;78056;1300;3055492;-61
2023/03/12 04:46:04;;;;;;;2.90;1.70;;;;;;;9.60;93.69;97014.79;79299;1295;3018335;-62
2023/03/12 04:48:30;;;;;;;3.90;1.60;;;;;;;9.60;94.06;97017.89;79246;1295;3011537;-61
2023/03/12 04:50:59;;;;;;;10.90;4.60;;;;;;;9.52;93.76;97033.31;78126;1301;3029276;-62
2023/03/12 04:53:25;;;;;;;7.00;3.20;;;;;;;9.35;94.28;97051.88;79355;1296;3018470;-61
2023/03/12 04:55:52;;;;;;;1.90;1.10;;;;;;;9.14;95.36;97052.82;79486;1300;3011860;-62
2023/03/12 04:58:21;;;;;;;2.20;1.10;;;;;;;10.11;90.81;97060.01;78076;1300;3027448;-63
2023/03/12 05:00:48;;;;;;;3.30;1.40;;;;;;;10.53;86.12;97075.37;79441;1295;3013266;-61
2023/03/12 05:03:16;;;;;;;3.00;1.20;;;;;;;10.04;85.66;97103.24;79345;1298;3013628;-62
2023/03/12 05:05:46;;;;;;;2.20;1.40;;;;;;;9.60;85.98;97129.94;78168;1301;3052200;-60
2023/03/12 05:08:34;;;;;;;6.10;2.70;;;;;;;9.50;86.34;97124.02;78053;1301;3055631;-61
2023/03/12 05:11:04;;;;;;;6.30;3.00;;;;;;;9.33;86.19;97130.52;79296;1296;3013628;-62
2023/03/12 05:13:33;;;;;;;3.10;1.70;;;;;;;9.04;87.05;97140.29;78115;1295;3051465;-61
2023/03/12 05:16:01;;;;;;;5.60;2.20;;;;;;;9.50;86.18;97145.21;79331;1295;3020654;-61
2023/03/12 05:18:35;;;;;;;7.10;2.10;;;;;;;9.94;83.61;97143.70;78064;1301;3054001;-62
2023/03/12 05:21:11;;;;;;;5.30;2.40;;;;;;;9.82;82.37;97126.13;79370;1302;3013514;-62
2023/03/12 05:23:41;;;;;;;6.80;2.90;;;;;;;9.51;83.41;97118.32;78103;1301;3052761;-61
2023/03/12 05:26:21;;;;;;;5.30;2.50;;;;;;;9.16;84.85;97125.31;79371;1296;3011519;-64
2023/03/12 05:28:50;;;;;;;5.10;2.50;;;;;;;8.98;85.80;97158.51;78117;1295;3051932;-65
2023/03/12 05:31:18;;;;;;;8.40;2.10;;;;;;;8.89;86.60;97180.81;79388;1296;3011521;-59
2023/03/12 05:33:49;;;;;;;4.50;2.20;;;;;;;9.38;86.73;97201.64;78859;1296;3013239;-60
2023/03/12 05:36:16;;;;;;;3.00;1.80;;;;;;;9.86;84.31;97215.95;79321;1296;3013611;-61
2023/03/12 05:38:44;;;;;;;3.10;1.80;;;;;;;10.06;83.00;97227.17;79423;1295;3011584;-62
2023/03/12 05:41:20;;;;;;;4.20;2.50;;;;;;;9.73;84.26;97236.80;78128;1296;3053305;-61
2023/03/12 05:43:50;;;;;;;3.60;2.60;;;;;;;9.60;84.65;97257.14;78153;1301;3069965;-63
2023/03/12 05:46:17;;;;;;;2.90;2.40;;;;;;;9.42;83.78;97267.34;79203;1299;3013852;-63
2023/03/12 05:48:44;;;;;;;2.30;1.40;;;;;;;9.18;85.45;97255.35;79264;1299;3013257;-63
2023/03/12 05:51:13;;;;;;;4.50;1.60;;;;;;;9.63;83.98;97267.38;77991;1301;3054532;-63
2023/03/12 05:53:40;;;;;;;2.20;1.50;;;;;;;9.93;82.11;97271.65;79198;1311;3013371;-62
2023/03/12 05:56:11;;;;;;;1.60;1.50;;;;;;;9.68;82.52;97292.96;79209;1301;3011750;-63
2023/03/12 05:58:39;;;;;;;3.10;1.70;;;;;;;9.42;82.15;97316.61;78083;1301;3070926;-62
2023/03/12 06:01:11;;;;;;;2.40;2.00;;;;;;;9.04;83.07;97329.40;79308;1301;3011728;-64
2023/03/12 06:03:41;;;;;;;2.30;1.50;;;;;;;8.83;83.84;97332.35;78037;1301;3056789;-62
2023/03/12 06:06:09;;;;;;;3.10;2.10;;;;;;;8.77;84.78;97331.92;79310;1301;3013469;-63
2023/03/12 06:08:40;;;;;;;3.80;2.50;;;;;;;9.30;82.24;97351.95;78805;1301;3011854;-62
2023/03/12 06:11:07;;;;;;;3.40;2.70;;;;;;;9.19;80.97;97356.41;79275;1301;3013062;-65
2023/03/12 06:13:34;;;;;;;5.70;3.90;;;;;;;8.95;80.16;97374.36;79208;1301;3013091;-62
2023/03/12 06:16:08;;;;;;;6.30;4.00;;;;;;;8.45;81.33;97372.16;77995;1297;3068386;-62
2023/03/12 06:18:36;;;;;;;5.80;4.50;;;;;;;8.16;81.79;97392.07;79277;1302;3011751;-60
2023/03/12 06:21:16;;;;;;;6.30;4.30;;;;;;;7.81;82.45;97406.95;78053;1300;3028882;-64
2023/03/12 06:23:47;;;;;;;4.90;3.80;;;;;;;7.84;82.73;97392.64;78002;1301;3049901;-62
2023/03/12 06:26:19;;;;;;;5.40;4.20;;;;;;;8.28;81.56;97404.16;79212;1299;3013063;-63
2023/03/12 06:28:48;;;;;;;5.10;4.00;;;;;;;8.42;79.99;97400.90;77936;1301;3050419;-63
2023/03/12 06:31:15;;;;;;;6.50;5.30;;;;;;;8.18;80.15;97391.88;79371;1301;3013514;-62
2023/03/12 06:33:47;;;;;;;6.20;4.50;;;;;;;7.99;80.34;97394.01;78051;1301;3070741;-62
2023/03/12 06:36:15;;;;;;;6.40;4.80;;;;;;;7.84;80.13;97392.78;79299;1296;3014160;-63
2023/03/12 06:38:42;;;;;;;5.50;4.20;;;;;;;7.42;81.68;97405.75;79297;1295;3013739;-64
2023/03/12 06:41:14;;;;;;;6.00;4.80;;;;;;;7.14;82.91;97407.99;78088;1296;3054164;-63
2023/03/12 06:43:41;;;;;;;5.00;4.00;;;;;;;7.22;83.19;97416.02;79265;1296;3013320;-63
2023/03/12 06:46:14;;;;;;;4.70;4.10;;;;;;;7.94;81.62;97418.26;78771;1300;3011460;-64
2023/03/12 06:48:42;;;;;;;5.80;4.70;;;;;;;8.34;79.05;97420.77;79265;1298;3011298;-64
2023/03/12 06:51:11;;;;;;;7.00;5.40;;;;;;;8.40;78.44;97420.09;78019;1301;3027565;-64
2023/03/12 06:53:37;;;;;;;9.70;6.60;;;;;;;8.23;77.82;97420.62;79325;1296;3013014;-63
2023/03/12 06:56:04;;;;;;;9.10;7.00;;;;;;;7.84;78.08;97437.41;79365;1296;3013697;-63
2023/03/12 06:58:37;;;;;;;8.20;7.00;;;;;;;7.56;78.67;97468.92;78198;1296;3053212;-63
2023/03/12 07:01:04;;;;;;;10.10;6.70;;;;;;;7.34;79.48;97471.73;79448;1301;3014009;-64
2023/03/12 07:03:31;;;;;;;8.60;5.30;;;;;;;7.25;79.72;97486.90;79233;1300;3013761;-64
2023/03/12 07:05:59;;;;;;;6.60;5.40;;;;;;;7.47;80.41;97482.68;77993;1301;3069101;-63
2023/03/12 07:08:29;;;;;;;5.30;4.30;;;;;;;7.92;78.82;97504.39;79340;1296;3013556;-64
2023/03/12 07:11:00;;;;;;;6.70;5.80;;;;;;;7.73;78.49;97518.41;78037;1296;3049114;-62
2023/03/12 07:13:26;;;;;;;7.90;6.00;;;;;;;7.85;77.54;97516.42;79499;1298;3013794;-64
2023/03/12 07:15:54;;;;;;;8.20;6.10;;;;;;;7.22;78.93;97528.05;79343;1301;3011889;-62
2023/03/12 07:18:22;;;;;;;10.90;7.30;;;;;;;7.20;79.00;97537.23;78373;1298;3026721;-64
2023/03/12 07:20:49;;;;;;;8.10;6.40;;;;;;;6.90;79.72;97552.58;79465;1299;3014268;-63
2023/03/12 07:23:17;;;;;;;8.20;6.70;;;;;;;6.61;80.69;97557.48;79376;1299;3011391;-66
2023/03/12 07:25:46;;;;;;;5.20;4.30;;;;;;;6.53;81.47;97559.36;78145;1301;3051592;-62
2023/03/12 07:28:13;;;;;;;4.30;3.90;;;;;;;7.47;77.98;97577.47;79263;1298;3012902;-66
2023/03/12 07:30:49;;;;;;;5.70;4.10;;;;;;;7.79;75.81;97571.34;78660;1301;3011915;-63
2023/03/12 07:33:19;;;;;;;6.40;4.70;;;;;;;7.61;74.81;97613.27;79139;1299;3011676;-65
2023/03/12 07:35:47;;;;;;;6.20;4.60;;;;;;;7.16;75.21;97582.98;78066;1301;3053507;-63
2023/03/12 07:38:14;;;;;;;6.20;4.70;;;;;;;7.12;74.86;97604.20;79267;1300;3013804;-63
2023/03/12 07:40:41;;;;;;;7.50;5.30;;;;;;;6.69;76.46;97608.96;79186;1296;3011634;-62
2023/03/12 07:43:11;;;;;;;6.10;4.90;;;;;;;6.56;77.94;97612.19;77995;1301;3048932;-63
2023/03/12 07:45:40;;;;;;;5.80;4.90;;;;;;;6.56;77.97;97638.59;79399;1298;3011739;-63
2023/03/12 07:48:08;;;;;;;8.40;5.30;;;;;;;6.54;77.59;97657.73;78039;1301;3028448;-63
2023/03/12 07:50:35;;;;;;;5.40;4.30;;;;;;;6.23;78.19;97660.45;79302;1301;3013530;-63
2023/03/12 07:53:03;;;;;;;4.50;3.50;;;;;;;6.38;78.34;97638.49;79281;1301;3012978;-64
2023/03/12 07:55:32;;;;;;;5.20;4.00;;;;;;;7.23;75.48;97652.79;78079;1300;3051698;-67
2023/03/12 07:57:59;;;;;;;7.70;4.00;;;;;;;7.51;73.56;97662.70;79400;1298;3012478;-67
2023/03/12 08:00:26;;;;;;;5.00;3.80;;;;;;;7.45;72.50;97683.77;79315;1298;3011584;-64
2023/03/12 08:02:54;;;;;;;4.90;3.50;;;;;;;6.97;73.01;97698.96;78044;1302;3049136;-63
2023/03/12 08:05:23;;;;;;;4.80;3.70;;;;;;;6.82;73.97;97692.58;79211;1301;3013769;-62
2023/03/12 08:07:53;;;;;;;4.30;3.10;;;;;;;6.62;74.72;97697.11;78707;1301;3013186;-66
2023/03/12 08:10:19;;;;;;;5.80;3.20;;;;;;;6.43;75.65;97695.58;79410;1300;3018319;-62
2023/03/12 08:12:48;;;;;;;3.60;2.50;;;;;;;6.23;76.37;97714.40;79292;1296;3011337;-63
2023/03/12 08:15:16;;;;;;;4.50;3.10;;;;;;;6.03;76.04;97712.81;78029;1301;3049042;-61
2023/03/12 08:17:47;;;;;;;3.20;2.50;;;;;;;5.81;76.21;97715.73;79258;1300;3011509;-65
2023/03/12 08:20:16;;;;;;;5.40;2.90;;;;;;;5.87;75.99;97759.42;78014;1301;3025643;-61
2023/03/12 08:22:43;;;;;;;3.70;2.60;;;;;;;5.79;76.77;97724.37;79305;1300;3013598;-63
2023/03/12 08:25:09;;;;;;;2.40;1.80;;;;;;;5.89;76.85;97737.38;79246;1301;3011686;-60
2023/03/12 08:27:38;;;;;;;2.60;1.70;;;;;;;6.55;75.43;97760.43;77964;1301;3050648;-63
2023/03/12 08:30:05;;;;;;;1.70;1.50;;;;;;;6.63;74.42;97728.59;79243;1299;3019156;-63
2023/03/12 08:32:32;;;;;;;2.90;2.20;;;;;;;6.87;73.06;97738.88;79236;1296;3011708;-63
2023/03/12 08:35:00;;;;;;;4.10;2.70;;;;;;;6.56;72.72;97757.26;77984;1300;3050253;-64
2023/03/12 08:37:28;;;;;;;3.10;2.80;;;;;;;6.52;72.95;97747.77;79310;1301;3013303;-63
2023/03/12 08:39:54;;;;;;;2.90;2.20;;;;;;;6.42;73.16;97746.78;79200;1302;3011832;-63
2023/03/12 08:42:22;;;;;;;3.00;2.40;;;;;;;6.27;72.16;97784.30;77994;1300;3052081;-65
2023/03/12 08:44:51;;;;;;;2.40;1.90;;;;;;;6.03;72.11;97771.04;79292;1298;3011910;-65
2023/03/12 08:47:20;;;;;;;2.60;1.90;;;;;;;6.01;73.26;97775.67;78710;1298;3011626;-63
2023/03/12 08:49:50;;;;;;;4.00;1.90;;;;;;;5.89;73.24;97798.55;79324;1298;3013423;-64
2023/03/12 08:52:19;;;;;;;2.30;1.40;;;;;;;6.01;73.29;97785.44;78679;1300;3011893;-63
2023/03/12 08:54:46;;;;;;;2.40;1.30;;;;;;;6.14;71.17;97787.34;79274;1301;3020529;-65
2023/03/12 08:57:12;;;;;;;1.60;1.20;;;;;;;6.11;70.94;97788.36;79252;1301;3011637;-63
2023/03/12 08:59:40;;;;;;;1.80;1.30;;;;;;;6.10;70.60;97794.37;78064;1301;3028029;-61
2023/03/12 09:02:10;;;;;;;2.20;1.30;;;;;;;6.01;70.09;97809.36;79293;1300;3018743;-64
2023/03/12 09:04:38;;;;;;;2.20;1.10;;;;;;;5.78;70.81;97816.47;78132;1300;3053181;-63
2023/03/12 09:07:05;;;;;;;1.60;1.10;;;;;;;5.85;71.13;97813.08;79228;1309;3013257;-62
2023/03/12 09:09:34;;;;;;;2.00;1.10;;;;;;;5.99;69.50;97848.09;79235;1302;3013621;-62
2023/03/12 09:12:02;;;;;;;1.60;1.00;;;;;;;5.57;67.58;97857.47;78001;1301;3069392;-62
2023/03/12 09:14:29;;;;;;;1.30;0.80;;;;;;;5.49;68.30;97851.75;79266;1300;3016180;-62
2023/03/12 09:16:56;;;;;;;2.20;1.20;;;;;;;5.51;69.16;97834.74;79306;1301;3011642;-64
2023/03/12 09:19:24;;;;;;;2.40;1.10;;;;;;;5.56;69.01;97861.05;77976;1301;3053561;-65
2023/03/12 09:21:55;;;;;;;1.80;1.00;;;;;;;5.55;68.82;97859.73;79191;1300;3012798;-65
2023/03/12 09:24:23;;;;;;;1.70;1.10;;;;;;;5.39;69.49;97876.90;78105;1301;3027581;-63
2023/03/12 09:26:49;;;;;;;1.10;1.00;;;;;;;5.10;70.62;97875.08;79408;1301;3013475;-63
2023/03/12 09:29:17;;;;;;;3.40;1.30;;;;;;;5.09;71.20;97878.96;79267;1300;3011840;-63
2023/03/12 09:31:45;;;;;;;3.40;1.20;;;;;;;4.98;71.68;97877.41;78038;1300;3055772;-62
2023/03/12 09:34:13;;;;;;;4.20;1.40;;;;;;;4.78;72.38;97905.34;79324;1299;3013443;-64
2023/03/12 09:36:40;;;;;;;1.80;1.30;;;;;;;4.89;71.85;97919.45;79254;1302;3011590;-64
2023/03/12 09:39:08;;;;;;;1.40;1.00;;;;;;;4.70;71.49;97908.09;78155;1301;3053078;-61
2023/03/12 09:41:38;;;;;;;2.30;1.60;;;;;;;4.65;71.00;97913.64;79383;1300;3020242;-63
2023/03/12 09:44:26;;;;;;;1.80;1.30;;;;;;;4.57;70.89;97950.17;78016;1301;3051964;-61
2023/03/12 09:47:00;;;;;;;1.70;1.30;;;;;;;4.58;70.46;97939.00;78177;1300;3057287;-64
2023/03/12 09:49:43;;;;;;;1.50;1.10;;;;;;;4.54;69.87;97955.89;79340;1302;3011714;-61
2023/03/12 09:52:17;;;;;;;2.30;1.20;;;;;;;4.48;69.76;97959.34;78058;1302;3051998;-61
2023/03/12 09:54:51;;;;;;;2.60;1.60;;;;;;;4.55;69.31;97955.98;79287;1302;3011793;-61
2023/03/12 09:57:22;;;;;;;;;;;;;;;4.42;70.34;97949.52;78114;1301;3051684;-62
2023/03/12 09:59:51;;;;;;;3.40;1.10;;;;;;;4.38;69.76;97950.28;79189;1301;3011544;-65
2023/03/12 10:02:43;;;;;;;1.60;1.00;;;;;;;4.37;69.76;97963.33;78189;1301;3069965;-62
2023/03/12 10:05:43;;;;;;;2.30;1.20;;;;;;;4.28;69.78;97963.32;78121;1301;3052008;-64
2023/03/12 10:08:17;;;;;;;1.60;0.80;;;;;;;4.22;69.85;97946.02;78209;1301;3057200;-61
2023/03/12 10:10:54;;;;;;;1.40;0.90;;;;;;;4.20;70.25;97975.40;78756;1301;3011912;-63
2023/03/12 10:13:36;;;;;;;4.10;1.50;;;;;;;4.12;70.49;97963.41;78108;1309;3050500;-63
2023/03/12 10:16:20;;;;;;;2.00;1.40;;;;;;;4.19;70.51;97973.40;78010;1296;3053986;-62
2023/03/12 10:19:16;;;;;;;1.40;1.20;;;;;;;4.15;70.34;97979.49;78126;1301;3050933;-63
2023/03/12 10:22:03;;;;;;;2.50;1.70;;;;;;;4.13;70.33;97987.78;78019;1301;3052930;-63
2023/03/12 10:25:19;;;;;;;1.50;0.80;;;;;;;3.98;70.74;97995.54;78029;1309;3052403;-62
2023/03/12 10:27:48;;;;;;;1.10;0.90;;;;;;;3.97;69.39;98007.92;77677;1308;3068685;-63
2023/03/12 10:30:18;;;;;;;1.70;1.40;;;;;;;4.00;68.87;97987.29;79391;1302;3013487;-64
2023/03/12 10:32:50;;;;;;;2.40;1.70;;;;;;;4.18;68.96;97995.66;77991;1299;3049636;-62
2023/03/12 10:35:22;;;;;;;3.00;1.40;;;;;;;4.26;68.36;97998.29;79273;1296;3011621;-63
2023/03/12 10:37:53;;;;;;;3.00;1.50;;;;;;;4.04;68.08;98043.08;77985;1302;3051802;-65
2023/03/12 10:40:32;;;;;;;2.10;1.10;;;;;;;4.02;68.08;98033.45;79332;1301;3013175;-63
2023/03/12 10:43:05;;;;;;;1.80;1.00;;;;;;;3.94;68.24;98040.11;78069;1301;3068727;-63
2023/03/12 10:45:35;;;;;;;2.70;1.40;;;;;;;4.01;67.85;98035.23;79397;1301;3011769;-63
2023/03/12 10:48:08;;;;;;;1.90;1.10;;;;;;;3.99;68.37;98035.02;78004;1301;3056337;-62
2023/03/12 10:50:39;;;;;;;2.40;1.50;;;;;;;3.98;68.48;98043.41;78797;1295;3013304;-61
2023/03/12 10:53:21;;;;;;;3.80;1.80;;;;;;;4.03;68.60;98043.94;79361;1295;3013083;-61
2023/03/12 10:56:07;;;;;;;3.20;1.70;;;;;;;4.08;68.69;98036.55;78274;1300;3051820;-63
2023/03/12 10:58:49;;;;;;;1.80;1.30;;;;;;;3.83;69.49;98059.44;78292;1299;3053593;-62
2023/03/12 11:01:17;;;;;;;2.40;1.20;;;;;;;3.60;69.97;98060.20;78137;1298;3052765;-63
2023/03/12 11:03:44;;;;;;;1.50;1.20;;;;;;;3.70;70.15;98063.11;79477;1301;3013074;-61
2023/03/12 11:06:22;;;;;;;2.30;1.20;;;;;;;3.80;69.51;98064.66;78210;1295;3055919;-64
2023/03/12 11:09:14;;;;;;;2.70;1.10;;;;;;;3.72;69.78;98073.02;79412;1296;3011634;-64
2023/03/12 11:11:44;;;;;;;2.00;1.30;;;;;;;3.76;69.27;98079.54;78104;1298;3053387;-63
2023/03/12 11:14:18;;;;;;;2.70;1.00;;;;;;;3.62;69.44;98065.96;79420;1299;3013201;-62
2023/03/12 11:16:48;;;;;;;1.90;1.20;;;;;;;3.67;69.43;98082.33;78140;1296;3052520;-65
2023/03/12 11:19:28;;;;;;;1.60;1.00;;;;;;;3.64;69.75;98097.70;79383;1301;3012998;-64
2023/03/12 11:21:58;;;;;;;1.50;0.90;;;;;;;3.49;70.10;98079.98;78235;1298;3057902;-63
2023/03/12 11:24:25;;;;;;;2.60;1.10;;;;;;;3.61;70.07;98088.02;79523;1295;3013259;-63
2023/03/12 11:27:18;;;;;;;1.70;1.30;;;;;;;3.70;69.88;98097.05;78236;1298;3028139;-64
2023/03/12 11:29:47;;;;;;;1.70;0.90;;;;;;;3.73;70.11;98098.97;78244;1296;3049541;-63
2023/03/12 11:32:30;;;;;;;1.90;1.20;;;;;;;3.74;69.90;98093.87;78996;1297;3011664;-63
2023/03/12 11:34:58;;;;;;;2.10;1.30;;;;;;;3.75;70.11;98098.35;78280;1298;3052413;-62
2023/03/12 11:37:34;;;;;;;1.50;1.20;;;;;;;3.74;69.80;98111.36;79402;1299;3013640;-63
2023/03/12 11:40:22;;;;;;;1.80;1.10;;;;;;;3.75;69.11;98117.36;78329;1298;3052158;-64